createdAt,value
2018-03-27T00:00:18.311Z,101151.97
2018-03-27T00:02:45.919Z,101155.85
2018-03-27T00:05:16.326Z,101155.27
2018-03-27T00:07:44.832Z,101154.28
2018-03-27T00:10:12.474Z,101158.06
2018-03-27T00:12:40.032Z,101155.45
2018-03-27T00:15:07.579Z,101155.16
2018-03-27T00:17:35.132Z,101156.78
2018-03-27T00:20:02.719Z,101155.23
2018-03-27T00:22:30.280Z,101158.41
2018-03-27T00:24:57.828Z,101158.23
2018-03-27T00:27:37.122Z,101158.38
2018-03-27T00:30:16.663Z,101156.00
2018-03-27T00:32:56.254Z,101156.61
2018-03-27T00:35:35.751Z,101159.88
2018-03-27T00:38:15.267Z,101158.73
2018-03-27T00:40:43.187Z,101160.39
2018-03-27T00:43:14.282Z,101166.59
2018-03-27T00:45:41.911Z,101158.99
2018-03-27T00:48:09.459Z,101162.78
2018-03-27T00:50:37.002Z,101162.61
2018-03-27T00:53:04.591Z,101159.59
2018-03-27T00:55:32.194Z,101162.72
2018-03-27T00:57:59.721Z,101163.23
2018-03-27T01:00:27.270Z,101164.45
2018-03-27T01:02:54.814Z,101158.52
2018-03-27T01:05:22.407Z,101158.80
2018-03-27T01:07:49.962Z,101163.34
2018-03-27T01:10:17.556Z,101153.64
2018-03-27T01:12:45.178Z,101155.83
2018-03-27T01:15:12.728Z,101158.43
2018-03-27T01:17:40.279Z,101161.48
2018-03-27T01:20:07.865Z,101161.84
2018-03-27T01:22:35.460Z,101162.33
2018-03-27T01:25:03.008Z,101159.67
2018-03-27T01:27:30.607Z,101159.10
2018-03-27T01:29:58.196Z,101161.53
2018-03-27T01:32:25.749Z,101162.08
2018-03-27T01:34:53.347Z,101157.77
2018-03-27T01:37:20.898Z,101161.06
2018-03-27T01:39:48.490Z,101155.20
2018-03-27T01:42:16.035Z,101160.80
2018-03-27T01:44:43.587Z,101158.37
2018-03-27T01:47:11.144Z,101159.70
2018-03-27T01:49:38.723Z,101167.08
2018-03-27T01:52:06.332Z,101163.48
2018-03-27T01:54:33.958Z,101163.23
2018-03-27T01:57:01.510Z,101158.52
2018-03-27T01:59:29.109Z,101155.81
2018-03-27T02:01:56.700Z,101155.63
2018-03-27T02:04:24.247Z,101153.89
2018-03-27T02:06:51.803Z,101150.63
2018-03-27T02:09:19.354Z,101160.13
2018-03-27T02:11:52.524Z,101160.05
2018-03-27T02:14:25.812Z,101157.30
2018-03-27T02:16:58.891Z,101163.27
2018-03-27T02:19:32.127Z,101159.33
2018-03-27T02:21:59.151Z,101162.48
2018-03-27T02:24:28.607Z,101161.86
2018-03-27T02:26:56.160Z,101162.31
2018-03-27T02:29:23.755Z,101164.44
2018-03-27T02:31:51.318Z,101170.00
2018-03-27T02:34:18.903Z,101161.31
2018-03-27T02:36:46.463Z,101156.34
2018-03-27T02:39:14.060Z,101160.48
2018-03-27T02:41:41.618Z,101163.59
2018-03-27T02:44:09.210Z,101162.36
2018-03-27T02:46:36.765Z,101158.92
2018-03-27T02:49:04.331Z,101161.67
2018-03-27T02:51:31.942Z,101159.94
2018-03-27T02:53:59.504Z,101159.69
2018-03-27T02:56:27.098Z,101165.48
2018-03-27T02:58:54.655Z,101164.02
2018-03-27T03:01:22.246Z,101163.75
2018-03-27T03:03:49.803Z,101160.48
2018-03-27T03:06:17.391Z,101160.91
2018-03-27T03:08:44.948Z,101168.31
2018-03-27T03:11:12.540Z,101173.67
2018-03-27T03:13:40.139Z,101172.89
2018-03-27T03:16:07.705Z,101180.69
2018-03-27T03:18:35.295Z,101169.63
2018-03-27T03:21:02.847Z,101171.69
2018-03-27T03:23:30.396Z,101167.98
2018-03-27T03:25:57.952Z,101175.30
2018-03-27T03:28:25.503Z,101171.61
2018-03-27T03:30:53.069Z,101176.45
2018-03-27T03:33:20.623Z,101177.23
2018-03-27T03:35:48.179Z,101172.50
2018-03-27T03:38:15.775Z,101165.91
2018-03-27T03:40:43.335Z,101166.75
2018-03-27T03:43:10.894Z,101172.75
2018-03-27T03:45:38.438Z,101172.41
2018-03-27T03:48:05.987Z,101170.33
2018-03-27T03:50:33.543Z,101173.00
2018-03-27T03:53:01.156Z,101174.52
2018-03-27T03:55:28.679Z,101174.11
2018-03-27T03:57:56.227Z,101170.14
2018-03-27T04:00:23.835Z,101169.65
2018-03-27T04:02:51.362Z,101171.27
2018-03-27T04:05:18.916Z,101168.69
2018-03-27T04:07:46.464Z,101174.95
2018-03-27T04:10:14.063Z,101162.20
2018-03-27T04:12:41.656Z,101169.27
2018-03-27T04:15:09.215Z,101167.30
2018-03-27T04:17:36.768Z,101165.39
2018-03-27T04:20:04.418Z,101165.09
2018-03-27T04:22:32.124Z,101167.02
2018-03-27T04:24:59.746Z,101167.63
2018-03-27T04:27:27.331Z,101163.53
2018-03-27T04:29:54.883Z,101160.47
2018-03-27T04:32:22.490Z,101162.56
2018-03-27T04:34:50.056Z,101156.94
2018-03-27T04:37:17.610Z,101164.45
2018-03-27T04:39:45.159Z,101164.10
2018-03-27T04:42:12.711Z,101158.09
2018-03-27T04:44:40.302Z,101162.53
2018-03-27T04:47:07.854Z,101163.01
2018-03-27T04:49:35.449Z,101166.94
2018-03-27T04:52:03.039Z,101166.96
2018-03-27T04:54:30.671Z,101162.48
2018-03-27T04:56:58.223Z,101162.99
2018-03-27T04:59:25.794Z,101164.95
2018-03-27T05:01:53.356Z,101169.70
2018-03-27T05:04:20.914Z,101171.94
2018-03-27T05:06:48.476Z,101171.00
2018-03-27T05:09:16.045Z,101170.31
2018-03-27T05:11:43.643Z,101178.91
2018-03-27T05:14:11.195Z,101176.09
2018-03-27T05:16:38.794Z,101178.83
2018-03-27T05:19:06.341Z,101178.00
2018-03-27T05:21:33.893Z,101181.53
2018-03-27T05:24:01.503Z,101183.22
2018-03-27T05:26:29.087Z,101188.70
2018-03-27T05:28:56.640Z,101189.59
2018-03-27T05:31:24.231Z,101188.75
2018-03-27T05:33:51.823Z,101186.50
2018-03-27T05:36:19.379Z,101187.15
2018-03-27T05:38:46.981Z,101186.16
2018-03-27T05:41:15.376Z,101185.84
2018-03-27T05:43:42.943Z,101189.38
2018-03-27T05:46:10.546Z,101193.85
2018-03-27T05:48:38.095Z,101192.28
2018-03-27T05:51:05.695Z,101191.02
2018-03-27T05:53:33.246Z,101194.14
2018-03-27T05:56:00.846Z,101195.47
2018-03-27T05:58:28.400Z,101199.13
2018-03-27T06:00:55.958Z,101196.16
2018-03-27T06:03:23.516Z,101201.16
2018-03-27T06:05:51.073Z,101197.03
2018-03-27T06:08:18.672Z,101202.84
2018-03-27T06:10:46.227Z,101197.12
2018-03-27T06:13:13.774Z,101203.91
2018-03-27T06:15:41.326Z,101204.91
2018-03-27T06:18:08.912Z,101203.12
2018-03-27T06:20:36.467Z,101203.81
2018-03-27T06:23:04.027Z,101202.08
2018-03-27T06:25:31.629Z,101201.88
2018-03-27T06:27:59.221Z,101211.70
2018-03-27T06:30:26.834Z,101206.30
2018-03-27T06:32:54.399Z,101206.17
2018-03-27T06:35:21.950Z,101208.98
2018-03-27T06:37:49.537Z,101210.70
2018-03-27T06:40:17.155Z,101210.31
2018-03-27T06:42:44.744Z,101213.83
2018-03-27T06:45:12.308Z,101215.69
2018-03-27T06:47:39.907Z,101212.92
2018-03-27T06:50:07.480Z,101219.20
2018-03-27T06:52:35.034Z,101216.95
2018-03-27T06:55:02.593Z,101219.10
2018-03-27T06:57:30.151Z,101217.36
2018-03-27T06:59:57.707Z,101218.28
2018-03-27T07:02:25.260Z,101216.91
2018-03-27T07:04:52.820Z,101206.92
2018-03-27T07:07:20.423Z,101202.84
2018-03-27T07:09:47.980Z,101202.81
2018-03-27T07:15:04.863Z,101205.88
2018-03-27T07:17:48.473Z,101203.84
2018-03-27T07:20:16.139Z,101195.48
2018-03-27T07:22:43.702Z,101195.10
2018-03-27T07:25:11.286Z,101191.14
2018-03-27T07:27:40.918Z,101199.30
2018-03-27T07:30:08.478Z,101193.83
2018-03-27T07:32:36.033Z,101197.06
2018-03-27T07:35:03.599Z,101196.72
2018-03-27T07:37:31.203Z,101195.26
2018-03-27T07:39:58.768Z,101199.45
2018-03-27T07:42:26.330Z,101188.02
2018-03-27T07:44:53.890Z,101188.73
2018-03-27T07:47:21.441Z,101190.63
2018-03-27T07:49:49.004Z,101194.84
2018-03-27T07:52:16.570Z,101198.22
2018-03-27T07:54:44.122Z,101199.05
2018-03-27T07:57:11.687Z,101191.44
2018-03-27T07:59:39.344Z,101196.06
2018-03-27T08:02:06.935Z,101191.61
2018-03-27T08:04:34.495Z,101189.47
2018-03-27T08:07:02.053Z,101183.07
2018-03-27T08:09:29.658Z,101188.31
2018-03-27T08:11:57.225Z,101180.94
2018-03-27T08:14:24.787Z,101184.52
2018-03-27T08:16:52.345Z,101184.12
2018-03-27T08:19:19.938Z,101185.67
2018-03-27T08:21:47.559Z,101187.30
2018-03-27T08:24:15.177Z,101185.63
2018-03-27T08:26:42.738Z,101181.48
2018-03-27T08:29:10.340Z,101180.55
2018-03-27T08:31:37.941Z,101172.41
2018-03-27T08:34:05.499Z,101180.38
2018-03-27T08:36:33.159Z,101181.69
2018-03-27T08:39:00.763Z,101177.78
2018-03-27T08:41:28.321Z,101179.58
2018-03-27T08:43:56.880Z,101185.18
2018-03-27T08:46:24.437Z,101185.53
2018-03-27T08:48:52.953Z,101184.61
2018-03-27T08:51:20.513Z,101180.61
2018-03-27T08:53:48.111Z,101174.52
2018-03-27T08:56:15.796Z,101176.52
2018-03-27T08:58:43.434Z,101181.63
2018-03-27T09:01:10.998Z,101180.17
2018-03-27T09:03:38.678Z,101183.11
2018-03-27T09:06:06.272Z,101186.13
2018-03-27T09:08:33.856Z,101185.16
2018-03-27T09:11:01.546Z,101180.97
2018-03-27T09:13:29.197Z,101179.00
2018-03-27T09:15:56.754Z,101178.91
2018-03-27T09:18:24.361Z,101175.95
2018-03-27T09:20:55.400Z,101174.41
2018-03-27T09:23:23.036Z,101176.37
2018-03-27T09:25:50.614Z,101171.01
2018-03-27T09:28:18.212Z,101172.91
2018-03-27T09:30:45.767Z,101175.14
2018-03-27T09:33:13.406Z,101171.88
2018-03-27T09:35:40.959Z,101165.84
2018-03-27T09:38:08.510Z,101164.45
2018-03-27T09:40:36.068Z,101165.41
2018-03-27T09:43:04.543Z,101164.47
2018-03-27T09:45:32.152Z,101167.04
2018-03-27T09:47:59.682Z,101164.13
2018-03-27T09:50:27.278Z,101165.23
2018-03-27T09:52:54.838Z,101158.91
2018-03-27T09:55:22.478Z,101158.55
2018-03-27T09:57:50.101Z,101159.20
2018-03-27T10:00:17.699Z,101161.05
2018-03-27T10:02:45.287Z,101158.60
2018-03-27T10:05:12.915Z,101161.98
2018-03-27T10:07:40.513Z,101162.16
2018-03-27T10:10:08.109Z,101164.25
2018-03-27T10:12:35.711Z,101158.25
2018-03-27T10:15:03.265Z,101148.75
2018-03-27T10:17:30.816Z,101146.72
2018-03-27T10:19:58.494Z,101151.17
2018-03-27T10:22:26.116Z,101153.33
2018-03-27T10:24:53.677Z,101153.27
2018-03-27T10:27:21.291Z,101148.45
2018-03-27T10:29:48.856Z,101149.03
2018-03-27T10:32:16.415Z,101143.61
2018-03-27T10:34:43.992Z,101141.87
2018-03-27T10:37:11.592Z,101147.50
2018-03-27T10:39:39.138Z,101143.70
2018-03-27T10:42:06.697Z,101137.27
2018-03-27T10:44:34.258Z,101135.20
2018-03-27T10:47:01.971Z,101139.94
2018-03-27T10:49:29.522Z,101130.43
2018-03-27T10:51:57.083Z,101136.64
2018-03-27T10:54:24.630Z,101135.97
2018-03-27T10:56:52.206Z,101135.77
2018-03-27T10:59:19.804Z,101136.14
2018-03-27T11:01:47.358Z,101132.92
2018-03-27T11:04:14.910Z,101137.55
2018-03-27T11:06:42.467Z,101139.42
2018-03-27T11:09:10.018Z,101130.23
2018-03-27T11:11:37.573Z,101134.88
2018-03-27T11:14:05.132Z,101134.27
2018-03-27T11:16:34.175Z,101127.26
2018-03-27T11:19:01.735Z,101127.52
2018-03-27T11:21:29.331Z,101128.16
2018-03-27T11:23:56.884Z,101122.11
2018-03-27T11:26:24.439Z,101127.14
2018-03-27T11:28:52.132Z,101130.95
2018-03-27T11:31:19.691Z,101130.97
2018-03-27T11:33:47.234Z,101123.84
2018-03-27T11:36:14.822Z,101116.05
2018-03-27T11:38:42.416Z,101110.42
2018-03-27T11:41:09.970Z,101107.48
2018-03-27T11:43:37.583Z,101109.33
2018-03-27T11:46:05.135Z,101109.23
2018-03-27T11:48:32.739Z,101113.69
2018-03-27T11:51:00.374Z,101106.62
2018-03-27T11:53:27.938Z,101112.23
2018-03-27T11:55:55.483Z,101105.59
2018-03-27T11:58:23.058Z,101111.91
2018-03-27T12:00:50.645Z,101107.87
2018-03-27T12:03:18.208Z,101105.59
2018-03-27T12:05:45.845Z,101111.48
2018-03-27T12:08:13.393Z,101104.30
2018-03-27T12:10:41.446Z,101097.78
2018-03-27T12:15:59.200Z,101098.05
2018-03-27T12:18:26.780Z,101091.00
2018-03-27T12:20:54.369Z,101083.41
2018-03-27T12:23:21.956Z,101079.36
2018-03-27T12:25:49.531Z,101086.09
2018-03-27T12:28:17.115Z,101072.88
2018-03-27T12:30:44.700Z,101076.91
2018-03-27T12:33:12.315Z,101073.90
2018-03-27T12:35:39.898Z,101065.65
2018-03-27T12:38:07.479Z,101067.51
2018-03-27T12:40:35.062Z,101069.99
2018-03-27T12:43:02.648Z,101069.02
2018-03-27T12:45:30.229Z,101068.23
2018-03-27T12:47:57.812Z,101063.53
2018-03-27T12:50:25.411Z,101063.59
2018-03-27T12:52:52.996Z,101060.33
2018-03-27T12:55:20.918Z,101060.64
2018-03-27T12:57:48.540Z,101051.21
2018-03-27T13:00:16.129Z,101043.16
2018-03-27T13:02:43.720Z,101044.53
2018-03-27T13:05:11.443Z,101038.13
2018-03-27T13:07:39.070Z,101028.27
2018-03-27T13:10:06.724Z,101029.64
2018-03-27T13:12:34.341Z,101030.48
2018-03-27T13:15:01.993Z,101027.56
2018-03-27T13:17:29.596Z,101027.84
2018-03-27T13:19:57.304Z,101016.37
2018-03-27T13:22:24.892Z,101012.24
2018-03-27T13:24:52.487Z,101018.24
2018-03-27T13:27:20.194Z,101014.47
2018-03-27T13:29:47.785Z,101014.39
2018-03-27T13:32:15.411Z,101015.78
2018-03-27T13:34:43.001Z,101016.95
2018-03-27T13:37:10.636Z,101017.95
2018-03-27T13:39:38.233Z,101009.95
2018-03-27T13:42:05.819Z,101011.80
2018-03-27T13:44:33.450Z,101013.56
2018-03-27T13:47:01.046Z,101002.25
2018-03-27T13:49:28.634Z,101004.30
2018-03-27T13:51:56.256Z,100999.61
2018-03-27T13:54:23.834Z,100995.31
2018-03-27T13:56:51.506Z,100990.94
2018-03-27T13:59:19.113Z,100988.44
2018-03-27T14:01:46.700Z,100986.62
2018-03-27T14:04:14.316Z,100985.27
2018-03-27T14:06:41.900Z,100976.59
2018-03-27T14:09:09.484Z,100975.63
2018-03-27T14:11:37.075Z,100976.15
2018-03-27T14:14:04.705Z,100969.44
2018-03-27T14:16:32.301Z,100969.28
2018-03-27T14:19:00.883Z,100972.42
2018-03-27T14:21:28.525Z,100969.52
2018-03-27T14:23:56.112Z,100971.47
2018-03-27T14:26:23.708Z,100962.50
2018-03-27T14:28:51.292Z,100961.09
2018-03-27T14:31:18.885Z,100955.36
2018-03-27T14:33:46.968Z,100955.50
2018-03-27T14:36:14.601Z,100948.09
2018-03-27T14:38:42.187Z,100949.88
2018-03-27T14:41:09.771Z,100947.16
2018-03-27T14:43:37.433Z,100944.98
2018-03-27T14:46:05.045Z,100946.50
2018-03-27T14:48:32.627Z,100938.16
2018-03-27T14:51:00.229Z,100936.52
2018-03-27T14:53:27.841Z,100937.75
2018-03-27T14:55:55.543Z,100934.53
2018-03-27T14:58:23.161Z,100940.55
2018-03-27T15:00:50.761Z,100936.73
2018-03-27T15:03:18.380Z,100941.66
2018-03-27T15:05:45.986Z,100932.48
2018-03-27T15:08:13.575Z,100930.14
2018-03-27T15:10:41.164Z,100928.75
2018-03-27T15:13:08.753Z,100925.25
2018-03-27T15:15:36.399Z,100921.70
2018-03-27T15:18:04.015Z,100918.37
2018-03-27T15:20:31.597Z,100916.09
2018-03-27T15:22:59.185Z,100909.70
2018-03-27T15:25:26.856Z,100904.20
2018-03-27T15:27:55.056Z,100904.70
2018-03-27T15:30:22.638Z,100903.70
2018-03-27T15:32:50.220Z,100906.28
2018-03-27T15:35:17.804Z,100904.19
2018-03-27T15:37:45.402Z,100904.87
2018-03-27T15:40:12.983Z,100899.64
2018-03-27T15:42:40.622Z,100896.95
2018-03-27T15:45:08.207Z,100897.44
2018-03-27T15:47:35.796Z,100894.47
2018-03-27T15:50:03.404Z,100891.55
2018-03-27T15:52:31.018Z,100889.99
2018-03-27T15:54:58.619Z,100885.89
2018-03-27T15:57:26.208Z,100882.09
2018-03-27T15:59:53.851Z,100881.21
2018-03-27T16:02:21.435Z,100883.84
2018-03-27T16:04:49.017Z,100878.69
2018-03-27T16:07:16.640Z,100874.61
2018-03-27T16:09:44.426Z,100876.96
2018-03-27T16:12:11.999Z,100880.53
2018-03-27T16:14:39.579Z,100871.52
2018-03-27T16:17:07.156Z,100871.36
2018-03-27T16:19:34.741Z,100867.37
2018-03-27T16:22:02.357Z,100858.15
2018-03-27T16:24:29.933Z,100855.50
2018-03-27T16:26:57.536Z,100856.23
2018-03-27T16:29:25.113Z,100850.87
2018-03-27T16:31:52.700Z,100847.97
2018-03-27T16:34:20.384Z,100844.38
2018-03-27T16:36:47.959Z,100840.77
2018-03-27T16:39:15.537Z,100844.45
2018-03-27T16:41:43.516Z,100845.44
2018-03-27T16:44:11.092Z,100849.88
2018-03-27T16:46:38.673Z,100856.91
2018-03-27T16:49:06.263Z,100852.74
2018-03-27T16:51:33.863Z,100853.26
2018-03-27T16:54:01.449Z,100857.32
2018-03-27T16:56:29.089Z,100858.13
2018-03-27T16:58:56.749Z,100854.19
2018-03-27T17:01:24.374Z,100858.41
2018-03-27T17:03:51.968Z,100856.20
2018-03-27T17:06:19.631Z,100849.22
2018-03-27T17:08:47.210Z,100857.76
2018-03-27T17:11:14.835Z,100854.59
2018-03-27T17:13:42.421Z,100860.73
2018-03-27T17:16:10.079Z,100853.75
2018-03-27T17:18:37.653Z,100864.59
2018-03-27T17:21:05.254Z,100861.73
2018-03-27T17:23:32.840Z,100856.70
2018-03-27T17:26:00.958Z,100855.39
2018-03-27T17:28:28.719Z,100863.42
2018-03-27T17:30:56.309Z,100871.17
2018-03-27T17:33:23.967Z,100868.52
2018-03-27T17:35:51.628Z,100871.88
2018-03-27T17:38:19.361Z,100869.38
2018-03-27T17:40:46.968Z,100871.88
2018-03-27T17:43:14.575Z,100871.88
2018-03-27T17:45:42.176Z,100868.52
2018-03-27T17:48:09.823Z,100868.92
2018-03-27T17:50:38.198Z,100864.73
2018-03-27T17:53:07.107Z,100869.03
2018-03-27T17:55:35.104Z,100866.91
2018-03-27T17:58:02.824Z,100859.39
2018-03-27T18:00:30.714Z,100863.16
2018-03-27T18:03:02.357Z,100854.66
2018-03-27T18:05:30.241Z,100855.77
2018-03-27T18:07:59.540Z,100852.26
2018-03-27T18:10:27.700Z,100854.75
2018-03-27T18:12:55.575Z,100849.08
2018-03-27T18:15:23.391Z,100857.55
2018-03-27T18:17:51.822Z,100849.40
2018-03-27T18:20:20.221Z,100851.03
2018-03-27T18:22:49.130Z,100854.37
2018-03-27T18:25:17.817Z,100856.05
2018-03-27T18:27:46.764Z,100862.02
2018-03-27T18:30:15.808Z,100860.48
2018-03-27T18:32:44.711Z,100856.14
2018-03-27T18:35:13.348Z,100862.06
2018-03-27T18:37:42.179Z,100855.20
2018-03-27T18:40:22.061Z,100861.00
2018-03-27T18:42:51.048Z,100856.42
2018-03-27T18:45:25.227Z,100849.06
2018-03-27T18:47:53.852Z,100865.23
2018-03-27T18:50:22.803Z,100855.48
2018-03-27T18:52:51.465Z,100866.97
2018-03-27T18:55:20.656Z,100863.98
2018-03-27T18:57:49.143Z,100860.36
2018-03-27T19:00:18.056Z,100865.80
2018-03-27T19:02:46.885Z,100864.50
2018-03-27T19:05:15.708Z,100866.23
2018-03-27T19:07:44.376Z,100868.56
2018-03-27T19:10:19.008Z,100866.61
2018-03-27T19:12:47.613Z,100867.89
2018-03-27T19:15:16.276Z,100863.27
2018-03-27T19:17:44.979Z,100861.18
2018-03-27T19:20:13.822Z,100868.30
2018-03-27T19:22:42.000Z,100863.53
2018-03-27T19:25:10.756Z,100863.53
2018-03-27T19:27:40.432Z,100860.95
2018-03-27T19:30:08.699Z,100860.91
2018-03-27T19:32:37.021Z,100856.98
2018-03-27T19:35:05.827Z,100858.53
2018-03-27T19:37:34.508Z,100857.31
2018-03-27T19:40:03.176Z,100861.00
2018-03-27T19:42:31.516Z,100859.48
2018-03-27T19:44:59.847Z,100859.48
2018-03-27T19:47:28.172Z,100862.22
2018-03-27T19:49:57.036Z,100868.33
2018-03-27T19:52:26.025Z,100869.96
2018-03-27T19:54:54.155Z,100871.84
2018-03-27T19:57:22.353Z,100866.52
2018-03-27T19:59:50.852Z,100867.97
2018-03-27T20:02:19.956Z,100868.41
2018-03-27T20:04:48.299Z,100865.10
2018-03-27T20:07:16.844Z,100856.86
2018-03-27T20:09:45.692Z,100859.25
2018-03-27T20:12:13.848Z,100856.40
2018-03-27T20:14:42.162Z,100855.55
2018-03-27T20:17:11.066Z,100853.61
2018-03-27T20:19:39.625Z,100847.58
2018-03-27T20:22:08.288Z,100853.43
2018-03-27T20:24:38.335Z,100846.31
2018-03-27T20:27:07.324Z,100849.42
2018-03-27T20:29:36.487Z,100845.58
2018-03-27T20:32:05.179Z,100845.36
2018-03-27T20:34:34.264Z,100840.59
2018-03-27T20:37:03.911Z,100841.55
2018-03-27T20:39:32.527Z,100830.95
2018-03-27T20:42:01.929Z,100835.33
2018-03-27T20:44:31.889Z,100835.06
2018-03-27T20:47:01.314Z,100828.27
2018-03-27T20:49:32.547Z,100824.87
2018-03-27T20:52:03.172Z,100818.14
2018-03-27T20:54:36.132Z,100816.09
2018-03-27T20:57:04.536Z,100804.67
2018-03-27T21:02:43.696Z,100806.11
2018-03-27T21:05:14.152Z,100811.89
2018-03-27T21:07:41.832Z,100811.67
2018-03-27T21:10:09.511Z,100810.77
2018-03-27T21:12:37.180Z,100810.11
2018-03-27T21:15:04.793Z,100807.59
2018-03-27T21:17:32.424Z,100810.44
2018-03-27T21:20:00.111Z,100809.45
2018-03-27T21:22:27.691Z,100807.36
2018-03-27T21:24:55.287Z,100809.03
2018-03-27T21:27:22.927Z,100808.30
2018-03-27T21:29:50.548Z,100807.00
2018-03-27T21:32:18.131Z,100804.92
2018-03-27T21:34:45.771Z,100798.50
2018-03-27T21:37:13.366Z,100804.98
2018-03-27T21:39:41.084Z,100800.42
2018-03-27T21:42:08.673Z,100791.41
2018-03-27T21:44:36.322Z,100788.98
2018-03-27T21:47:03.985Z,100784.84
2018-03-27T21:49:31.568Z,100789.27
2018-03-27T21:51:59.211Z,100779.83
2018-03-27T21:54:26.811Z,100773.84
2018-03-27T21:56:54.400Z,100772.32
2018-03-27T21:59:22.010Z,100770.09
2018-03-27T22:01:49.644Z,100767.91
2018-03-27T22:04:17.227Z,100765.73
2018-03-27T22:06:44.839Z,100760.89
2018-03-27T22:09:12.441Z,100750.95
2018-03-27T22:11:40.031Z,100755.61
2018-03-27T22:14:07.608Z,100759.80
2018-03-27T22:16:35.202Z,100761.69
2018-03-27T22:19:02.834Z,100758.06
2018-03-27T22:21:30.427Z,100763.22
2018-03-27T22:23:58.014Z,100760.38
2018-03-27T22:26:25.656Z,100751.00
2018-03-27T22:28:53.273Z,100746.14
2018-03-27T22:31:20.870Z,100739.48
2018-03-27T22:33:48.500Z,100733.41
2018-03-27T22:36:16.090Z,100730.45
2018-03-27T22:38:43.721Z,100736.06
2018-03-27T22:41:11.313Z,100731.64
2018-03-27T22:43:38.901Z,100741.84
2018-03-27T22:46:06.512Z,100744.97
2018-03-27T22:48:34.150Z,100730.95
2018-03-27T22:51:01.829Z,100728.66
2018-03-27T22:53:29.388Z,100720.05
2018-03-27T22:55:57.023Z,100727.95
2018-03-27T22:58:26.359Z,100730.25
2018-03-27T23:00:53.955Z,100727.67
2018-03-27T23:03:21.548Z,100728.77
2018-03-27T23:05:49.144Z,100713.33
2018-03-27T23:08:16.778Z,100713.67
2018-03-27T23:10:44.380Z,100710.17
2018-03-27T23:13:12.844Z,100711.31
2018-03-27T23:15:40.444Z,100709.52
2018-03-27T23:18:08.028Z,100703.81
2018-03-27T23:20:35.656Z,100702.30
2018-03-27T23:23:03.247Z,100701.53
2018-03-27T23:25:30.836Z,100702.18
2018-03-27T23:27:59.061Z,100702.94
2018-03-27T23:30:26.650Z,100704.91
2018-03-27T23:32:54.267Z,100699.80
2018-03-27T23:35:21.856Z,100694.30
2018-03-27T23:37:49.448Z,100697.52
2018-03-27T23:40:17.096Z,100699.73
2018-03-27T23:42:44.731Z,100696.06
2018-03-27T23:45:12.321Z,100703.45
2018-03-27T23:47:39.942Z,100697.09
2018-03-27T23:50:07.540Z,100700.27
2018-03-27T23:52:35.172Z,100695.34
2018-03-27T23:55:02.806Z,100694.09
2018-03-27T23:57:30.401Z,100688.68
2018-03-27T23:59:58.036Z,100686.88
